Weather reports worldwide

Advertisment
La Molina, Spain (8117): temperature & dewpoint: 30.03.2020 22:00:00 - 05.04.2020 22:00:00 (CEST)La Molina, Spain (8117): wind speed & gusts: 30.03.2020 22:00:00 - 05.04.2020 22:00:00 (CEST)La Molina, Spain (8117): wind direction: 30.03.2020 22:00:00 - 05.04.2020 22:00:00 (CEST)La Molina, Spain (8117): visibility: 30.03.2020 22:00:00 - 05.04.2020 22:00:00 (CEST)La Molina, Spain (8117): sunshine duration: 30.03.2020 22:00:00 - 05.04.2020 22:00:00 (CEST)La Molina, Spain (8117): precipitation: 30.03.2020 22:00:00 - 05.04.2020 22:00:00 (CEST)
Date & Time tt [°C] td [°C] ff [km/h] ff [kn] fx [km/h] fx [kn] dd vv [km] sd [min] rr [mm]
05.04.2020 22:00:00 - - - - - - - - - -
05.04.2020 21:00:00 3,4 -2,2 4 2 23 12 SE 20 0 0,0
05.04.2020 20:00:00 5,7 -1,4 15 8 29 16 S 20 13 -
05.04.2020 19:00:00 7,9 -2,0 15 8 29 15 SSE 20 60 0,0
05.04.2020 18:00:00 9,8 -2,5 14 8 33 18 S 20 60 0,0
05.04.2020 17:00:00 10,0 -2,0 9 5 40 21 S 20 60 0,0
05.04.2020 16:00:00 9,3 -1,4 18 10 35 19 ESE 20 60 0,0
05.04.2020 15:00:00 9,2 -1,4 17 9 31 17 SE 20 60 0,0
05.04.2020 14:00:00 9,0 -2,0 18 10 31 17 S 20 60 -
05.04.2020 13:00:00 8,7 -3,0 15 8 29 16 S 20 60 0,0
05.04.2020 12:00:00 7,7 -4,2 13 7 26 14 S 20 60 0,0
05.04.2020 11:00:00 6,8 1,5 6 3 13 7 NW 20 60 0,0
05.04.2020 10:00:00 3,5 -2,0 3 1 6 3 ESE 20 49 0,0
05.04.2020 09:00:00 -0,9 -2,2 4 2 9 5 SE 20 0 0,0
05.04.2020 08:00:00 -1,6 -2,5 4 2 9 5 SE 20 0 -
05.04.2020 07:00:00 -0,9 -2,2 5 3 13 7 SSE 18 0 0,0
05.04.2020 06:00:00 0,4 -0,3 7 4 13 7 SE 16 0 0,0
05.04.2020 05:00:00 0,5 0,4 6 3 10 5 SE 0,4 0 0,0
05.04.2020 04:00:00 -0,3 -1,2 4 2 7 4 SSE 20 0 0,0
05.04.2020 03:00:00 0,3 -0,5 3 1 9 5 E 20 0 0,0
05.04.2020 02:00:00 0,8 0,2 4 2 9 5 ESE 20 0 -
05.04.2020 01:00:00 1,5 0,4 5 3 8 4 ESE 20 0 0,0
05.04.2020 00:00:00 2,2 0,6 6 3 9 5 ESE 20 0 0,0
04.04.2020 23:00:00 3,0 1,3 6 3 10 6 ESE 20 0 0,0
04.04.2020 22:00:00 4,1 1,9 6 4 10 5 ESE 20 0 0,0
04.04.2020 21:00:00 4,8 1,9 4 2 16 9 ESE 20 0 0,0
04.04.2020 20:00:00 7,3 2,5 13 7 25 13 ESE 20 11 -
04.04.2020 19:00:00 10,4 3,0 11 6 35 19 S 20 60 0,0
04.04.2020 18:00:00 10,7 3,4 16 9 27 15 SSE 20 60 0,0
04.04.2020 17:00:00 11,3 3,0 12 6 29 16 S 20 60 0,0
04.04.2020 16:00:00 11,4 2,7 13 7 26 14 S 20 60 0,0
04.04.2020 15:00:00 10,7 1,7 13 7 29 15 SE 20 60 0,0
04.04.2020 14:00:00 11,4 0,4 8 5 22 12 SE 20 60 -
04.04.2020 13:00:00 9,0 0,2 8 4 13 7 NNW 20 60 0,0
04.04.2020 12:00:00 7,3 -0,7 6 4 11 6 NW 20 60 0,0
04.04.2020 11:00:00 5,8 -2,0 5 3 10 5 NNW 20 60 0,0
04.04.2020 10:00:00 2,6 -1,5 1 1 5 3 E 20 46 0,0
04.04.2020 09:00:00 -1,4 -3,9 4 2 9 5 ESE 20 0 0,0
04.04.2020 08:00:00 -2,5 -5,1 6 3 10 5 ESE 20 0 -
04.04.2020 07:00:00 -2,2 -4,5 4 2 10 5 ESE 20 0 0,0
04.04.2020 06:00:00 -2,2 -5,7 6 3 10 6 ESE 20 0 0,0
04.04.2020 05:00:00 -2,0 -6,4 5 3 11 6 ESE 20 0 0,0
04.04.2020 04:00:00 -1,5 -9,9 5 3 10 5 ESE 20 0 0,0
04.04.2020 03:00:00 -1,1 -10,8 6 3 10 5 SE 20 0 0,0
04.04.2020 02:00:00 -0,6 -11,2 6 4 10 5 ESE 20 0 -
04.04.2020 01:00:00 -0,3 -10,8 5 3 10 5 SE 20 0 0,0
04.04.2020 00:00:00 0,0 -7,5 6 3 10 6 SE 20 0 0,0
03.04.2020 23:00:00 0,4 -4,5 6 3 9 5 S 20 0 0,0
03.04.2020 22:00:00 0,9 -3,3 5 3 10 6 SSE 20 0 0,0
03.04.2020 21:00:00 2,2 -2,0 5 3 19 10 ESE 20 0 0,0
03.04.2020 20:00:00 4,9 -1,0 8 4 13 7 ESE 20 11 -
03.04.2020 19:00:00 8,9 -1,0 4 2 21 11 NNE 20 60 0,0
03.04.2020 18:00:00 10,0 -6,0 12 7 23 13 NNW 20 60 0,0
03.04.2020 17:00:00 10,4 -7,5 12 6 21 11 N 20 60 0,0
03.04.2020 16:00:00 9,7 -5,1 9 5 25 14 NW 20 60 0,0
03.04.2020 15:00:00 8,7 -7,5 9 5 20 11 WNW 20 60 0,0
03.04.2020 14:00:00 7,8 -6,7 7 4 22 12 NW 20 60 -
03.04.2020 13:00:00 6,5 -3,9 6 3 19 10 NW 20 60 0,0
03.04.2020 12:00:00 5,1 -3,6 6 4 18 10 NNW 20 60 0,0
03.04.2020 11:00:00 3,6 -2,7 9 5 18 10 NW 20 60 0,0
03.04.2020 10:00:00 2,6 -3,6 6 3 13 7 NNW 20 45 0,0
03.04.2020 09:00:00 -0,8 -4,5 3 2 9 5 SSE 20 0 0,0
03.04.2020 08:00:00 -1,5 -4,2 5 3 13 7 S 20 0 -
03.04.2020 07:00:00 -1,5 -4,8 5 3 13 7 S 20 0 0,0
03.04.2020 06:00:00 -1,6 -4,5 5 3 9 5 S 20 0 0,0
03.04.2020 05:00:00 -1,2 -4,2 7 4 11 6 SSW 20 0 0,0
03.04.2020 04:00:00 -1,1 -4,8 6 4 11 6 SSW 20 0 0,0
03.04.2020 03:00:00 -0,7 -5,1 3 1 11 6 NE 20 0 0,0
03.04.2020 02:00:00 -0,4 -3,9 2 1 16 9 NE 20 0 -
03.04.2020 01:00:00 0,1 -3,3 2 1 12 7 W 20 0 0,0
03.04.2020 00:00:00 1,2 -2,2 3 2 17 9 NW 20 0 0,0
02.04.2020 23:00:00 1,0 -2,0 4 2 10 5 SE 20 0 0,0
02.04.2020 22:00:00 1,6 -1,7 4 2 11 6 SE 20 0 0,0
02.04.2020 21:00:00 2,4 -1,0 4 2 21 12 SW 20 0 0,0
02.04.2020 20:00:00 3,2 -0,7 6 3 13 7 NW 20 0 -
02.04.2020 19:00:00 4,3 0,0 6 4 19 11 NW 20 0 0,0
02.04.2020 18:00:00 5,5 -0,3 7 4 19 10 N 20 10 0,0
02.04.2020 17:00:00 5,9 0,2 9 5 23 12 NW 20 13 0,0
02.04.2020 16:00:00 6,3 0,4 11 6 25 13 WNW 20 36 0,0
02.04.2020 15:00:00 6,0 1,5 7 4 14 8 NW 20 24 0,0
02.04.2020 14:00:00 4,7 1,3 7 4 17 9 W 20 0 -
02.04.2020 13:00:00 4,7 1,9 9 5 23 12 NNW 20 0 0,0
02.04.2020 12:00:00 3,9 1,9 5 3 13 7 NW 20 0 0,0
02.04.2020 11:00:00 3,5 1,7 5 3 15 8 NW 20 14 0,0
02.04.2020 10:00:00 3,0 1,5 3 2 11 6 NNW 20 1 0,0
02.04.2020 09:00:00 1,1 1,1 3 2 7 4 NW 12 0 0,2
02.04.2020 08:00:00 0,7 0,4 3 2 17 9 ENE 20 0 -
02.04.2020 07:00:00 0,8 0,4 2 1 6 3 NW 8 0 0,0
02.04.2020 06:00:00 1,2 0,4 5 3 15 8 SSE 20 0 0,0
02.04.2020 05:00:00 0,8 0,2 3 2 16 9 E 20 0 0,0
02.04.2020 04:00:00 0,8 0,2 4 2 17 9 E 20 0 0,0
02.04.2020 03:00:00 1,0 0,4 4 2 23 13 SSE 17 0 0,4
02.04.2020 02:00:00 1,4 0,4 4 2 17 9 SE 7 0 -
02.04.2020 01:00:00 1,7 0,6 7 4 24 13 ESE 9 0 0,0
02.04.2020 00:00:00 1,9 0,6 13 7 22 12 SE 19 0 0,2
01.04.2020 23:00:00 1,9 1,1 9 5 20 11 SE 7 0 0,6
01.04.2020 22:00:00 2,1 1,1 8 4 18 10 SE 10 0 1,2
01.04.2020 21:00:00 1,9 1,3 5 3 13 7 NE 19 0 0,0
01.04.2020 20:00:00 2,7 1,1 5 3 16 8 E 20 0 -
01.04.2020 19:00:00 3,1 1,5 4 2 11 6 SSE 20 0 0,2
01.04.2020 18:00:00 3,1 1,7 6 3 20 11 SE 16 0 0,4
01.04.2020 17:00:00 3,2 0,4 11 6 26 14 SE 20 0 0,0
01.04.2020 16:00:00 2,7 0,9 16 9 31 17 SE 17 0 0,4
01.04.2020 15:00:00 3,0 1,1 16 9 32 17 ESE 20 1 0,0
01.04.2020 14:00:00 3,2 1,9 14 7 31 17 SE 14 12 -
01.04.2020 13:00:00 4,6 1,3 11 6 29 16 ESE 20 32 0,0
01.04.2020 12:00:00 3,0 0,6 16 9 31 17 SE 10 1 0,0
01.04.2020 11:00:00 2,8 0,9 5 3 21 11 SE 20 8 0,0
01.04.2020 10:00:00 1,8 1,1 6 3 30 16 S 20 0 0,0
01.04.2020 09:00:00 1,2 0,0 17 9 34 18 SE 19 0 0,0
01.04.2020 08:00:00 0,8 0,4 18 10 26 14 SE 17 0 -
01.04.2020 07:00:00 0,8 0,6 14 7 28 15 SE 9 0 0,0
01.04.2020 06:00:00 0,8 0,4 16 8 33 18 SE 9 0 0,2
01.04.2020 05:00:00 1,2 0,6 13 7 31 17 SE 6 0 0,4
01.04.2020 04:00:00 1,2 0,4 19 10 39 21 SE 1,9 0 0,2
01.04.2020 03:00:00 1,1 0,6 19 10 36 20 SE 6 0 0,6
01.04.2020 02:00:00 1,2 0,4 13 7 29 16 SE 2,5 0 -
01.04.2020 01:00:00 1,4 0,2 20 11 31 17 SE 9 0 1,4
01.04.2020 00:00:00 1,2 0,2 18 10 33 18 SE 6 0 0,6
31.03.2020 23:00:00 0,8 0,2 18 10 29 16 SE 0,6 0 0,8
31.03.2020 22:00:00 1,0 0,2 19 10 33 18 SE 0,7 0 1,0
31.03.2020 21:00:00 1,1 0,2 14 8 31 17 SE 1,3 0 0,8
31.03.2020 20:00:00 1,3 0,2 14 8 29 15 SE 2,6 0 -
31.03.2020 19:00:00 2,0 0,0 13 7 24 13 SE 10 0 0,0
31.03.2020 18:00:00 2,3 0,0 4 2 22 12 E 17 0 0,0
31.03.2020 17:00:00 2,9 0,2 4 2 22 12 S 10 0 0,0
31.03.2020 16:00:00 4,3 0,0 6 4 34 18 ENE 16 18 0,0
31.03.2020 15:00:00 4,7 0,9 7 4 27 15 ESE 20 0 0,0
31.03.2020 14:00:00 3,8 2,1 7 4 22 12 E 6 0 -
31.03.2020 13:00:00 3,7 1,3 9 5 27 15 SE 20 1 0,0
31.03.2020 12:00:00 4,2 1,5 11 6 23 13 SE 20 46 0,0
31.03.2020 11:00:00 3,6 0,6 6 4 16 8 SSE 20 29 0,0
31.03.2020 10:00:00 1,7 0,9 2 1 17 9 ENE 20 0 0,0
31.03.2020 09:00:00 1,1 0,7 4 2 17 9 E 20 0 0,4
31.03.2020 08:00:00 0,9 0,4 8 4 17 9 ENE 4,8 0 -
31.03.2020 07:00:00 0,9 0,5 6 3 24 13 NE 4,2 0 0,0
31.03.2020 06:00:00 0,8 0,4 4 2 21 11 N 20 0 0,0
31.03.2020 05:00:00 1,1 0,2 10 5 20 11 N 20 0 0,0
31.03.2020 04:00:00 0,7 0,7 5 3 24 13 ESE 14 0 0,0
31.03.2020 03:00:00 0,6 0,6 10 5 21 11 ESE 1,6 0 0,2
31.03.2020 02:00:00 0,7 0,4 5 3 20 11 E 1,0 0 -
31.03.2020 01:00:00 0,5 0,1 6 4 16 8 ENE 10 0 0,0
31.03.2020 00:00:00 0,4 -0,2 6 3 17 9 E 1,8 0 0,0
30.03.2020 23:00:00 -0,1 -0,4 6 3 14 7 E 18 0 0,0
30.03.2020 22:00:00 0,1 -1,0 6 3 17 9 SW 20 0 0,0

tt = temperature
td = dewpoint
ff = wind speed
fx = gusts
dd = wind direction
vv = visibility
sd = sunshine duration
rr = precipitation

Next stations